AirNav   Air Wisconsin Up To $57,000 Bonus
 
 839 users online  

7FL1 Adams Executive Heliport
Winter Haven, Florida, USA

GOING TO WINTER HAVEN?


FAA INFORMATION EFFECTIVE 02 JANUARY 2020

Location

FAA Identifier: 7FL1
Lat/Long: 28-01-01.0000N 081-40-30.0000W
28-01.016667N 081-40.500000W
28.0169444,-81.6750000
(estimated)
Elevation: 137 ft. / 42 m (estimated)
Variation: 04W (1995)
From city: 5 miles E of WINTER HAVEN, FL
Time zone: UTC -5 (UTC -4 during Daylight Saving Time)
Zip code: 33884

Heliport Operations

Heliport use: Private use. Permission required prior to landing
Activation date: 08/1996
Control tower: no
ARTCC: MIAMI CENTER
FSS: SAINT PETERSBURG FLIGHT SERVICE STATION
Attendance: UNATNDD
Wind indicator: yes
Segmented circle: no

Heliport Communications

WX ASOS at GIF (5 nm NW): 133.675 (863-956-2097)
WX AWOS-3 at BOW (7 nm SW): 123.775 (863-533-9004)
WX AWOS-3 at X07 (8 nm S): 124.225 (863-678-1334)
WX AWOS-3PT at LAL (18 nm W): 118.025 (863-834-2030)

Nearby radio navigation aids

VOR radial/distance  VOR name  Freq  Var
LALr083/18.0LAKELAND VORTAC116.0001E
ORLr210/36.3ORLANDO VORTAC112.2000E

Heliport Services

Runway Information

Helipad H1

Dimensions: 25 x 25 ft. / 8 x 8 m
Surface: turf
Latitude: 28-01.016667N
Longitude: 081-40.500000W
Traffic pattern: leftleft

Heliport Ownership and Management from official FAA records

Ownership: Privately-owned
Owner: TOM E ADAMS
1855 OVERLOOK DR
WINTER HAVEN, FL 33884
Phone 941-325-0000
Manager: TOMMY ADAMS
7 PEACHTREE LN SE
WINTER HAVEN, FL 33884-1007
Phone 863-559-2824

Heliport Operational Statistics

Aircraft based on the field: 1
Helicopters: 1
    

Additional Remarks

OVERNIGHT PARKING OR MAINTENANCE UPON REQUEST.
FOR CD CTC TAMPA APCH AT 813-878-2528

Instrument Procedures

There are no published instrument procedures at 7FL1.

Some nearby airports with instrument procedures:

KGIF - Winter Haven Regional Airport (5 nm NW)
KBOW - Bartow Executive Airport (7 nm SW)
X07 - Lake Wales Municipal Airport (8 nm S)
KLAL - Lakeland Linder International Airport (18 nm W)
KISM - Kissimmee Gateway Airport (21 nm NE)
 
Loc | Ops | Rwys | IFR | FBO | Links
Com | Nav | Svcs | Stats | Notes


 
Area around 7FL1 (Adams Executive Heliport)
 
Road maps at: MapQuest Bing Google
 
Aerial photo
No photo
 
Sectional chart

 
Airport distance calculator
Flying to Adams Executive Heliport? Find the distance to fly.

From to 7FL1

Sunrise and sunset
Times for 21-Jan-2020
 Local
(UTC-5)
 Zulu
(UTC)
Morning civil twilight06:5411:54
Sunrise07:1912:19
Sunset17:5722:57
Evening civil twilight18:2223:22

Current date and time
Zulu (UTC)  21-Jan-2020 12:51:44
Local (UTC-5)  21-Jan-2020 07:51:44
 
METAR
KGIF 
5nm NW 
211153Z AUTO 33009KT 10SM CLR 05/02 A3021 RMK AO2 SLP229 T00500022 10083 20050 53006
KBOW 
7nm SW 
211230Z 36006KT 10SM SKC 05/02 A3020
KX07 
8nm S 
211235Z AUTO 35006KT 10SM CLR 05/03 A3022 RMK A01
KLAL 
18nm W 
211150Z 36009KT 10SM SKC 04/01 A3022
TAF
KLAL 
18nm W 
211136Z 2112/2212 35008KT P6SM SKC FM211600 34013G21KT P6SM SKC FM212300 36011KT P6SM SKC
KISM 
20nm NE 
211124Z 2112/2212 34010KT P6SM SKC FM211300 34011KT P6SM FEW030 FM211800 35014G20KT P6SM FEW040 FM220000 34014KT P6SM SKC
NOTAMs
Click for the latest NOTAMs
NOTAMs are issued by the DoD/FAA and will open in a separate window not controlled by AirNav.

 

 
 

Would you like to see your business listed on this page?

 If your business provides an interesting product or service to pilots, flight crews, aircraft, or users of the Adams Executive Heliport, you should consider listing it here.  To start the listing process, click on the button below
 
Add a business
 

Other Pages about Adams Executive Heliport

Update a link
 
Copyright © AirNav, LLC. All rights reserved. Privacy Policy  Contact